createdAt,value
2022-09-02T00:04:52.704Z,100229.59
2022-09-02T00:09:55.511Z,100232.94
2022-09-02T00:14:58.403Z,100236.84
2022-09-02T00:20:01.548Z,100223.91
2022-09-02T00:25:04.826Z,100223.97
2022-09-02T00:30:08.195Z,100219.66
2022-09-02T00:35:12.047Z,100212.69
2022-09-02T00:40:16.001Z,100206.13
2022-09-02T00:45:21.439Z,100213.56
2022-09-02T00:50:32.580Z,100210.09
2022-09-02T00:55:45.030Z,100206.00
2022-09-02T01:00:52.679Z,100202.72
2022-09-02T01:05:57.502Z,100203.34
2022-09-02T01:11:01.614Z,100207.91
2022-09-02T01:16:10.946Z,100204.84
2022-09-02T01:21:14.367Z,100197.44
2022-09-02T01:26:17.323Z,100198.47
2022-09-02T01:31:20.317Z,100192.72
2022-09-02T01:36:23.199Z,100204.28
2022-09-02T01:41:26.039Z,100202.25
2022-09-02T01:46:28.896Z,100204.50
2022-09-02T01:51:31.893Z,100199.34
2022-09-02T01:56:35.330Z,100208.22
2022-09-02T02:01:38.455Z,100198.91
2022-09-02T02:06:48.867Z,100198.31
2022-09-02T02:11:55.478Z,100199.66
2022-09-02T02:16:58.555Z,100200.09
2022-09-02T02:22:01.668Z,100199.63
2022-09-02T02:27:05.001Z,100190.78
2022-09-02T02:32:08.039Z,100192.44
2022-09-02T02:37:13.102Z,100182.75
2022-09-02T02:42:17.193Z,100181.50
2022-09-02T02:47:20.238Z,100186.47
2022-09-02T02:52:23.130Z,100182.53
2022-09-02T02:57:26.004Z,100182.13
2022-09-02T03:02:34.221Z,100194.06
2022-09-02T03:07:37.428Z,100188.09
2022-09-02T03:12:40.953Z,100187.09
2022-09-02T03:17:45.483Z,100183.22
2022-09-02T03:22:50.719Z,100184.03
2022-09-02T03:27:54.231Z,100181.16
2022-09-02T03:33:03.758Z,100186.75
2022-09-02T03:38:09.201Z,100186.38
2022-09-02T03:43:12.357Z,100183.50
2022-09-02T03:48:15.774Z,100185.97
2022-09-02T03:53:19.859Z,100177.31
2022-09-02T03:58:23.962Z,100185.53
2022-09-02T04:03:28.195Z,100188.19
2022-09-02T04:08:31.274Z,100180.75
2022-09-02T04:13:34.397Z,100190.44
2022-09-02T04:18:37.830Z,100180.13
2022-09-02T04:23:40.999Z,100185.66
2022-09-02T04:28:44.193Z,100189.75
2022-09-02T04:33:47.902Z,100192.41
2022-09-02T04:38:51.104Z,100200.84
2022-09-02T04:43:58.200Z,100186.78
2022-09-02T04:49:01.077Z,100199.16
2022-09-02T04:54:04.035Z,100194.00
2022-09-02T04:59:07.361Z,100194.00
2022-09-02T05:04:10.287Z,100200.22
2022-09-02T05:09:13.455Z,100199.63
2022-09-02T05:14:16.441Z,100196.34
2022-09-02T05:19:21.776Z,100205.22
2022-09-02T05:24:26.891Z,100193.72
2022-09-02T05:29:29.781Z,100200.34
2022-09-02T05:34:33.562Z,100197.72
2022-09-02T05:39:36.560Z,100201.03
2022-09-02T05:44:39.407Z,100184.97
2022-09-02T05:49:42.501Z,100192.41
2022-09-02T05:54:45.983Z,100199.84
2022-09-02T05:59:52.406Z,100189.56
2022-09-02T06:04:56.359Z,100192.47
2022-09-02T06:09:59.204Z,100185.69
2022-09-02T06:15:03.113Z,100186.72
2022-09-02T06:20:06.625Z,100200.13
2022-09-02T06:25:10.603Z,100195.59
2022-09-02T06:30:13.751Z,100206.53
2022-09-02T06:35:16.849Z,100194.34
2022-09-02T06:40:19.975Z,100187.69
2022-09-02T06:45:24.448Z,100194.72
2022-09-02T06:50:27.265Z,100192.41
2022-09-02T06:55:30.949Z,100191.75
2022-09-02T07:00:35.818Z,100191.50
2022-09-02T07:05:39.835Z,100189.59
2022-09-02T07:10:42.776Z,100198.47
2022-09-02T07:15:45.726Z,100196.56
2022-09-02T07:20:48.609Z,100186.44
2022-09-02T07:25:51.503Z,100189.25
2022-09-02T07:30:59.655Z,100186.94
2022-09-02T07:36:12.263Z,100186.91
2022-09-02T07:41:15.792Z,100191.81
2022-09-02T07:46:19.551Z,100188.34
2022-09-02T07:51:23.125Z,100193.13
2022-09-02T07:56:26.228Z,100187.69
2022-09-02T08:01:30.408Z,100184.16
2022-09-02T08:06:35.205Z,100188.09
2022-09-02T08:11:41.215Z,100187.50
2022-09-02T08:16:46.029Z,100194.38
2022-09-02T08:21:49.004Z,100187.56
2022-09-02T08:26:52.120Z,100186.53
2022-09-02T08:31:55.035Z,100188.09
2022-09-02T08:36:58.052Z,100179.38
2022-09-02T08:42:40.125Z,100176.41
2022-09-02T08:47:49.588Z,100172.81
2022-09-02T08:53:13.411Z,100172.13
2022-09-02T08:58:20.672Z,100170.13
2022-09-02T09:03:42.035Z,100174.81
2022-09-02T09:09:10.306Z,100160.81
2022-09-02T09:14:24.948Z,100170.69
2022-09-02T09:19:59.660Z,100167.34
2022-09-02T09:25:07.676Z,100169.94
2022-09-02T09:30:15.099Z,100159.84
2022-09-02T09:35:19.712Z,100155.06
2022-09-02T09:40:33.285Z,100148.69
2022-09-02T09:45:37.712Z,100153.78
2022-09-02T09:50:40.671Z,100140.25
2022-09-02T09:56:08.018Z,100127.31
2022-09-02T10:01:34.530Z,100133.31
2022-09-02T10:06:44.883Z,100123.22
2022-09-02T10:12:06.994Z,100126.34
2022-09-02T10:17:31.327Z,100121.97
2022-09-02T10:22:38.511Z,100114.69
2022-09-02T10:28:24.292Z,100121.16
2022-09-02T10:34:08.486Z,100123.47
2022-09-02T10:39:17.205Z,100120.41
2022-09-02T10:45:03.180Z,100129.25
2022-09-02T10:50:21.010Z,100124.66
2022-09-02T10:55:59.203Z,100125.47
2022-09-02T11:01:03.359Z,100123.34
2022-09-02T11:06:23.071Z,100119.50
2022-09-02T11:11:41.239Z,100120.41
2022-09-02T11:17:16.308Z,100117.16
2022-09-02T11:22:40.787Z,100114.56
2022-09-02T11:27:57.072Z,100109.97
2022-09-02T11:33:15.783Z,100098.66
2022-09-02T11:38:37.239Z,100100.09
2022-09-02T11:44:11.328Z,100095.69
2022-09-02T11:49:51.634Z,100097.09
2022-09-02T11:55:28.180Z,100086.69
2022-09-02T12:00:56.079Z,100073.47
2022-09-02T12:06:13.946Z,100077.09
2022-09-02T12:11:42.739Z,100072.91
2022-09-02T12:17:04.473Z,100074.97
2022-09-02T12:22:16.597Z,100075.72
2022-09-02T12:27:37.358Z,100067.66
2022-09-02T12:32:52.452Z,100062.22
2022-09-02T12:38:23.298Z,100061.84
2022-09-02T12:43:31.068Z,100055.31
2022-09-02T12:48:45.975Z,100055.66
2022-09-02T12:53:51.358Z,100049.28
2022-09-02T12:59:00.160Z,100046.81
2022-09-02T13:04:17.263Z,100042.31
2022-09-02T13:09:47.535Z,100043.63
2022-09-02T13:15:06.261Z,100044.97
2022-09-02T13:20:33.482Z,100039.88
2022-09-02T13:26:07.461Z,100036.63
2022-09-02T13:31:28.243Z,100036.56
2022-09-02T13:36:51.321Z,100039.75
2022-09-02T13:41:55.299Z,100034.81
2022-09-02T13:47:16.055Z,100030.94
2022-09-02T13:53:01.124Z,100025.28
2022-09-02T13:58:08.991Z,100023.28
2022-09-02T14:03:18.234Z,100020.88
2022-09-02T14:08:27.011Z,100018.22
2022-09-02T14:13:30.455Z,100010.38
2022-09-02T14:18:33.347Z,100020.88
2022-09-02T14:23:40.777Z,100016.97
2022-09-02T14:28:50.811Z,100029.19
2022-09-02T14:33:53.739Z,100027.41
2022-09-02T14:39:10.108Z,100020.22
2022-09-02T14:44:22.520Z,100016.06
2022-09-02T14:49:32.754Z,100016.06
2022-09-02T14:54:45.350Z,100020.19
2022-09-02T14:59:49.923Z,100027.78
2022-09-02T15:04:55.436Z,100026.97
2022-09-02T15:09:58.692Z,100023.63
2022-09-02T15:15:01.616Z,100024.88
2022-09-02T15:20:07.074Z,100025.28
2022-09-02T15:25:14.529Z,100024.63
2022-09-02T15:30:17.895Z,100021.56
2022-09-02T15:35:20.766Z,100020.34
2022-09-02T15:40:24.434Z,100030.19
2022-09-02T15:45:28.375Z,100036.59
2022-09-02T15:50:34.373Z,100032.66
2022-09-02T15:55:37.508Z,100029.28
2022-09-02T16:00:40.892Z,100030.97
2022-09-02T16:05:47.036Z,100036.81
2022-09-02T16:10:49.972Z,100052.66
2022-09-02T16:16:02.201Z,100047.00
2022-09-02T16:21:10.968Z,100050.44
2022-09-02T16:26:15.061Z,100066.81
2022-09-02T16:31:20.994Z,100074.56
2022-09-02T16:36:26.835Z,100077.31
2022-09-02T16:41:46.462Z,100085.56
2022-09-02T16:46:51.646Z,100088.78
2022-09-02T16:51:58.160Z,100086.44
2022-09-02T16:57:01.972Z,100094.88
2022-09-02T17:02:05.559Z,100103.63
2022-09-02T17:07:09.632Z,100106.53
2022-09-02T17:12:12.547Z,100103.31
2022-09-02T17:17:17.242Z,100113.34
2022-09-02T17:22:20.389Z,100109.53
2022-09-02T17:27:23.540Z,100112.56
2022-09-02T17:32:27.078Z,100121.78
2022-09-02T17:37:31.868Z,100107.19
2022-09-02T17:42:34.776Z,100119.94
2022-09-02T17:47:38.515Z,100109.44
2022-09-02T17:52:41.495Z,100125.00
2022-09-02T17:58:15.032Z,100123.44
2022-09-02T18:03:42.567Z,100132.03
2022-09-02T18:09:02.591Z,100140.03
2022-09-02T18:14:32.789Z,100136.22
2022-09-02T18:20:09.328Z,100143.00
2022-09-02T18:25:12.300Z,100142.09
2022-09-02T18:30:33.669Z,100153.41
2022-09-02T18:36:13.826Z,100156.38
2022-09-02T18:42:10.385Z,100153.34
2022-09-02T18:47:28.465Z,100145.31
2022-09-02T18:52:32.382Z,100147.03
2022-09-02T18:58:02.477Z,100146.50
2022-09-02T19:03:06.497Z,100152.13
2022-09-02T19:08:34.076Z,100152.78
2022-09-02T19:14:02.096Z,100153.44
2022-09-02T19:19:06.634Z,100168.13
2022-09-02T19:24:15.323Z,100162.34
2022-09-02T19:29:18.869Z,100171.22
2022-09-02T19:34:35.711Z,100174.94
2022-09-02T19:39:38.733Z,100178.47
2022-09-02T19:44:41.789Z,100179.88
2022-09-02T19:49:44.704Z,100181.53
2022-09-02T19:54:47.765Z,100179.47
2022-09-02T19:59:51.875Z,100171.19
2022-09-02T20:04:54.716Z,100167.47
2022-09-02T20:09:57.852Z,100180.66
2022-09-02T20:15:00.929Z,100169.53
2022-09-02T20:20:19.548Z,100185.59
2022-09-02T20:25:36.219Z,100183.91
2022-09-02T20:30:47.456Z,100182.22
2022-09-02T20:36:26.134Z,100194.97
2022-09-02T20:42:16.784Z,100195.34
2022-09-02T20:47:25.030Z,100192.03
2022-09-02T20:53:18.022Z,100194.50
2022-09-02T20:59:00.425Z,100196.94
2022-09-02T21:04:24.779Z,100187.84
2022-09-02T21:09:59.394Z,100193.63
2022-09-02T21:15:09.456Z,100198.53
2022-09-02T21:20:46.148Z,100193.97
2022-09-02T21:26:00.813Z,100189.41
2022-09-02T21:31:31.861Z,100190.19
2022-09-02T21:36:38.639Z,100190.00
2022-09-02T21:41:49.418Z,100191.44
2022-09-02T21:47:04.193Z,100195.94
2022-09-02T21:52:22.523Z,100200.03
2022-09-02T21:57:37.667Z,100194.03
2022-09-02T22:02:50.254Z,100187.81
2022-09-02T22:08:13.546Z,100199.06
2022-09-02T22:13:17.927Z,100189.16
2022-09-02T22:18:49.189Z,100191.59
2022-09-02T22:23:55.904Z,100192.81
2022-09-02T22:29:04.941Z,100184.13
2022-09-02T22:34:08.740Z,100188.97
2022-09-02T22:39:16.227Z,100181.44
2022-09-02T22:45:06.079Z,100173.97
2022-09-02T22:50:35.470Z,100184.00
2022-09-02T22:56:04.002Z,100173.50
2022-09-02T23:01:43.325Z,100177.25
2022-09-02T23:06:47.920Z,100168.25
2022-09-02T23:12:28.804Z,100160.03
2022-09-02T23:18:10.576Z,100155.31
2022-09-02T23:24:01.211Z,100163.13
2022-09-02T23:29:26.778Z,100162.41
2022-09-02T23:35:03.549Z,100160.91
2022-09-02T23:40:22.279Z,100169.84
2022-09-02T23:45:32.168Z,100164.66
2022-09-02T23:51:16.227Z,100156.78
2022-09-02T23:56:40.639Z,100157.91
